Preston, Nebraska
Current Conditions -  °F | °C
As of 4:53 PM on Wednesday 22 Oct 2014 (Local Time) from KFNB Reporting Station
Light Rain Light Rain  
Wind Chill: 76°   Ceiling: Unl
Heat Index: 76°   Visibility: 10mi
Dew Point: 56°   Wind: 16mph
Humidity: 50%   Direction: 150°SSE
Pressure: 30.02"   Gusts: NA
Location:  40.1276°N, 95.5661°W
Report Text: KFNB 222153Z AUTO 15014KT 10SM -RA CLR 24/13 A3002 RMK AO2 RAE11B30 SLP162 P0000 T02440133
Loading
Personal Weather Stations






























Interactive Weather Map
Tropical Storm Tracking
New forecast layout! Learn more

10-Day Weather Forecast

Advertisements
Track Severe Weather on mobile